Time;durP1;ratioP1;P1;durP2;ratioP2;P2;SDS_P1;SDS_P2;PMS_P1;PMS_P2;Temp;Humidity;BMP_temperature;BMP_pressure;BME280_temperature;BME280_humidity;BME280_pressure;Samples;Min_cycle;Max_cycle;Signal;HPM_P1;HPM_P2
2021/11/13 00:01:01;;;;;;;63.33;24.05;;;;;;;;;;5050469;28;20108;-58
2021/11/13 00:03:27;;;;;;;63.58;23.55;;;;;;;;;;5047880;28;20029;-57
2021/11/13 00:05:53;;;;;;;65.38;23.15;;;;;;;;;;5054602;28;20060;-56
2021/11/13 00:08:19;;;;;;;57.30;23.23;;;;;;;;;;5048244;28;20040;-54
2021/11/13 00:10:47;;;;;;;58.25;23.30;;;;;;;;;;5047281;28;20039;-56
2021/11/13 00:13:13;;;;;;;55.60;22.77;;;;;;;;;;5051933;28;20029;-56
2021/11/13 00:15:39;;;;;;;61.42;22.35;;;;;;;;;;5051543;28;20485;-55
2021/11/13 00:18:05;;;;;;;62.90;23.00;;;;;;;;;;5042797;28;20477;-56
2021/11/13 00:20:31;;;;;;;58.65;22.38;;;;;;;;;;5043871;28;20061;-56
2021/11/13 00:22:58;;;;;;;63.58;21.40;;;;;;;;;;5048812;28;20068;-53
2021/11/13 00:25:24;;;;;;;56.83;21.90;;;;;;;;;;5040863;28;20029;-55
2021/11/13 00:27:50;;;;;;;64.00;22.50;;;;;;;;;;5039912;28;20067;-57
2021/11/13 00:30:17;;;;;;;53.83;22.48;;;;;;;;;;5045934;28;20056;-57
2021/11/13 00:32:43;;;;;;;64.38;23.95;;;;;;;;;;5049784;28;20045;-57
2021/11/13 00:35:09;;;;;;;62.22;23.27;;;;;;;;;;5046122;28;20036;-57
2021/11/13 00:37:36;;;;;;;64.60;23.08;;;;;;;;;;5051752;28;20028;-57
2021/11/13 00:40:02;;;;;;;59.03;24.10;;;;;;;;;;5049937;28;20029;-57
2021/11/13 00:42:28;;;;;;;60.20;22.45;;;;;;;;;;5048069;28;20036;-58
2021/11/13 00:44:54;;;;;;;58.97;23.77;;;;;;;;;;5050738;28;20100;-57
2021/11/13 00:47:20;;;;;;;76.30;24.98;;;;;;;;;;5053366;28;20111;-57
2021/11/13 00:49:46;;;;;;;61.00;22.00;;;;;;;;;;5050833;28;20448;-57
2021/11/13 00:52:12;;;;;;;59.83;22.88;;;;;;;;;;5052266;28;20029;-57
2021/11/13 00:54:38;;;;;;;64.35;24.15;;;;;;;;;;5049216;28;20082;-56
2021/11/13 00:57:07;;;;;;;55.53;24.40;;;;;;;;;;5046852;28;20022;-56
2021/11/13 00:59:34;;;;;;;56.22;22.85;;;;;;;;;;5048049;28;20100;-57
2021/11/13 01:02:00;;;;;;;52.85;21.60;;;;;;;;;;5049587;28;20472;-57
2021/11/13 01:04:26;;;;;;;59.67;23.77;;;;;;;;;;5047615;28;20037;-58
2021/11/13 01:06:52;;;;;;;66.55;24.15;;;;;;;;;;5051751;28;20060;-55
2021/11/13 01:09:18;;;;;;;57.60;23.90;;;;;;;;;;5043613;28;20465;-56
2021/11/13 01:11:45;;;;;;;61.35;23.65;;;;;;;;;;5051793;28;20045;-56
2021/11/13 01:14:11;;;;;;;63.42;24.33;;;;;;;;;;5051695;28;20025;-58
2021/11/13 01:16:37;;;;;;;53.70;21.10;;;;;;;;;;5049562;28;20028;-56
2021/11/13 01:19:04;;;;;;;58.67;22.42;;;;;;;;;;5049795;28;20499;-57
2021/11/13 01:21:30;;;;;;;59.22;21.83;;;;;;;;;;5051397;28;20035;-58
2021/11/13 01:23:56;;;;;;;58.28;23.20;;;;;;;;;;5049273;28;20029;-57
2021/11/13 01:26:22;;;;;;;61.28;23.58;;;;;;;;;;5048201;28;20057;-58
2021/11/13 01:28:48;;;;;;;63.63;24.40;;;;;;;;;;5046612;28;20431;-56
2021/11/13 01:31:15;;;;;;;60.70;22.92;;;;;;;;;;5050631;28;20081;-56
2021/11/13 01:33:41;;;;;;;57.83;23.48;;;;;;;;;;5048527;28;20045;-57
2021/11/13 01:36:07;;;;;;;51.80;21.98;;;;;;;;;;5054473;28;20453;-56
2021/11/13 01:38:34;;;;;;;56.97;22.95;;;;;;;;;;5055588;28;20418;-55
2021/11/13 01:41:00;;;;;;;54.97;21.38;;;;;;;;;;5049896;28;20111;-57
2021/11/13 01:43:26;;;;;;;59.22;23.58;;;;;;;;;;5056224;28;20028;-57
2021/11/13 01:45:52;;;;;;;62.33;23.67;;;;;;;;;;5057062;28;20040;-58
2021/11/13 01:48:19;;;;;;;61.35;22.25;;;;;;;;;;5054178;28;20025;-57
2021/11/13 01:50:46;;;;;;;56.97;23.38;;;;;;;;;;5056662;28;20599;-57
2021/11/13 01:53:12;;;;;;;58.35;21.50;;;;;;;;;;5051152;28;20473;-56
2021/11/13 01:55:39;;;;;;;56.55;21.98;;;;;;;;;;5059721;28;20025;-57
2021/11/13 01:58:06;;;;;;;57.88;22.27;;;;;;;;;;5058420;28;20025;-57
2021/11/13 02:00:34;;;;;;;57.03;23.52;;;;;;;;;;5059388;28;20048;-55
2021/11/13 02:03:01;;;;;;;56.10;21.55;;;;;;;;;;5059781;28;20140;-57
2021/11/13 02:05:27;;;;;;;53.85;20.77;;;;;;;;;;5061375;28;20120;-57
2021/11/13 02:07:53;;;;;;;56.17;22.60;;;;;;;;;;5060703;28;20134;-56
2021/11/13 02:10:20;;;;;;;60.03;23.65;;;;;;;;;;5057278;28;20116;-57
2021/11/13 02:12:46;;;;;;;52.33;21.88;;;;;;;;;;5056299;28;20453;-55
2021/11/13 02:15:13;;;;;;;58.33;21.70;;;;;;;;;;5061784;28;20082;-57
2021/11/13 02:17:39;;;;;;;57.97;22.40;;;;;;;;;;5059165;28;20030;-57
2021/11/13 02:20:35;;;;;;;65.07;24.10;;;;;;;;;;5060699;28;20459;-56
2021/11/13 02:23:03;;;;;;;57.13;21.15;;;;;;;;;;5056149;28;20122;-57
2021/11/13 02:25:30;;;;;;;57.05;22.15;;;;;;;;;;5059856;28;20110;-56
2021/11/13 02:27:57;;;;;;;60.25;22.45;;;;;;;;;;5048585;28;20021;-53
2021/11/13 02:30:23;;;;;;;63.88;22.83;;;;;;;;;;5048445;28;20033;-57
2021/11/13 02:32:49;;;;;;;60.78;21.42;;;;;;;;;;5054930;28;20053;-56
2021/11/13 02:35:17;;;;;;;57.30;21.65;;;;;;;;;;5047404;28;20028;-55
2021/11/13 02:37:44;;;;;;;59.72;22.33;;;;;;;;;;5052687;28;20451;-56
2021/11/13 02:40:11;;;;;;;57.85;21.55;;;;;;;;;;5052143;28;20464;-54
2021/11/13 02:42:38;;;;;;;50.13;21.08;;;;;;;;;;5049072;28;20036;-56
2021/11/13 02:45:09;;;;;;;54.55;21.17;;;;;;;;;;5038878;28;20400;-54
2021/11/13 02:47:35;;;;;;;54.50;22.65;;;;;;;;;;5049122;28;20488;-57
2021/11/13 02:50:02;;;;;;;53.88;20.60;;;;;;;;;;5046894;28;20033;-55
2021/11/13 02:52:28;;;;;;;61.85;23.10;;;;;;;;;;5051361;28;20035;-58
2021/11/13 02:54:54;;;;;;;55.70;22.33;;;;;;;;;;5051863;28;20468;-53
2021/11/13 02:57:20;;;;;;;61.42;22.20;;;;;;;;;;5052652;28;20041;-57
2021/11/13 02:59:49;;;;;;;54.58;22.40;;;;;;;;;;5042505;28;20033;-57
2021/11/13 03:02:15;;;;;;;60.70;22.27;;;;;;;;;;5052871;28;20092;-57
2021/11/13 03:04:41;;;;;;;58.55;23.10;;;;;;;;;;5049554;28;20033;-58
2021/11/13 03:07:07;;;;;;;55.67;20.75;;;;;;;;;;5050244;28;20032;-57
2021/11/13 03:09:34;;;;;;;56.13;21.02;;;;;;;;;;5043621;28;20039;-57
2021/11/13 03:12:00;;;;;;;49.53;20.05;;;;;;;;;;5049798;28;20120;-56
2021/11/13 03:14:26;;;;;;;56.22;22.42;;;;;;;;;;5037808;28;20040;-55
2021/11/13 03:16:52;;;;;;;51.45;21.58;;;;;;;;;;5046479;28;20031;-57
2021/11/13 03:19:18;;;;;;;50.65;20.05;;;;;;;;;;5045811;28;20127;-54
2021/11/13 03:21:44;;;;;;;47.45;19.70;;;;;;;;;;5047987;28;20031;-57
2021/11/13 03:24:11;;;;;;;58.15;22.23;;;;;;;;;;5036449;28;20026;-57
2021/11/13 03:26:37;;;;;;;54.95;22.08;;;;;;;;;;5043410;28;20473;-57
2021/11/13 03:29:06;;;;;;;57.50;20.17;;;;;;;;;;5038912;28;20112;-56
2021/11/13 03:31:32;;;;;;;53.25;20.67;;;;;;;;;;5044181;28;20111;-55
2021/11/13 03:33:58;;;;;;;53.92;20.58;;;;;;;;;;5041885;28;20408;-56
2021/11/13 03:36:24;;;;;;;49.83;20.77;;;;;;;;;;5053852;28;20031;-55
2021/11/13 03:38:51;;;;;;;56.85;20.48;;;;;;;;;;5058704;28;20456;-55
2021/11/13 03:41:17;;;;;;;54.15;20.60;;;;;;;;;;5045638;28;20028;-56
2021/11/13 03:43:43;;;;;;;51.90;20.02;;;;;;;;;;5046882;28;20033;-56
2021/11/13 03:46:09;;;;;;;49.50;19.55;;;;;;;;;;5048779;28;20025;-55
2021/11/13 03:48:36;;;;;;;51.65;19.23;;;;;;;;;;5049973;28;20032;-57
2021/11/13 03:51:02;;;;;;;50.25;19.45;;;;;;;;;;5052124;28;20484;-56
2021/11/13 03:53:28;;;;;;;56.08;20.88;;;;;;;;;;5048523;28;20149;-56
2021/11/13 03:55:54;;;;;;;59.75;20.25;;;;;;;;;;5039597;28;20112;-57
2021/11/13 03:58:20;;;;;;;57.20;21.15;;;;;;;;;;5045587;28;20040;-57
2021/11/13 04:00:46;;;;;;;52.38;20.33;;;;;;;;;;5044195;28;20017;-57
2021/11/13 04:03:12;;;;;;;55.78;20.25;;;;;;;;;;5049772;28;20042;-57
2021/11/13 04:05:38;;;;;;;51.28;18.45;;;;;;;;;;5048738;28;20094;-55
2021/11/13 04:08:04;;;;;;;53.65;19.80;;;;;;;;;;5047795;28;20517;-57
2021/11/13 04:10:31;;;;;;;53.05;20.02;;;;;;;;;;5050444;28;20112;-57
2021/11/13 04:12:57;;;;;;;56.63;21.33;;;;;;;;;;5051289;28;20029;-56
2021/11/13 04:15:23;;;;;;;48.08;20.08;;;;;;;;;;5050428;28;20076;-54
2021/11/13 04:17:50;;;;;;;46.67;19.58;;;;;;;;;;5040281;28;20033;-55
2021/11/13 04:20:20;;;;;;;52.83;19.17;;;;;;;;;;5047044;28;20032;-57
2021/11/13 04:22:47;;;;;;;41.47;18.63;;;;;;;;;;5047980;28;20067;-57
2021/11/13 04:25:14;;;;;;;54.03;19.75;;;;;;;;;;5046903;28;20116;-55
2021/11/13 04:27:41;;;;;;;43.97;19.08;;;;;;;;;;5049362;28;20479;-56
2021/11/13 04:30:08;;;;;;;49.50;17.92;;;;;;;;;;5048373;28;20120;-55
2021/11/13 04:32:36;;;;;;;47.17;18.45;;;;;;;;;;5049179;28;20139;-55
2021/11/13 04:35:14;;;;;;;49.90;19.38;;;;;;;;;;5051220;28;20127;-57
2021/11/13 04:37:41;;;;;;;46.85;18.00;;;;;;;;;;5045864;28;20056;-55
2021/11/13 04:40:08;;;;;;;44.55;17.63;;;;;;;;;;5049907;28;20024;-55
2021/11/13 04:42:33;;;;;;;44.33;17.77;;;;;;;;;;5057338;28;20032;-57
2021/11/13 04:44:59;;;;;;;50.72;17.75;;;;;;;;;;5044779;28;20033;-57
2021/11/13 04:47:26;;;;;;;47.08;19.05;;;;;;;;;;5052556;28;20032;-57
2021/11/13 04:49:52;;;;;;;51.83;17.73;;;;;;;;;;5050660;28;20033;-56
2021/11/13 04:52:18;;;;;;;44.95;18.80;;;;;;;;;;5045714;28;20065;-57
2021/11/13 04:54:44;;;;;;;46.38;18.30;;;;;;;;;;5051675;28;20146;-57
2021/11/13 04:57:09;;;;;;;49.40;17.80;;;;;;;;;;5045157;28;20108;-55
2021/11/13 04:59:36;;;;;;;51.00;18.38;;;;;;;;;;5039048;28;20018;-56
2021/11/13 05:02:02;;;;;;;44.67;17.48;;;;;;;;;;5048518;28;20052;-57
2021/11/13 05:04:28;;;;;;;48.92;18.98;;;;;;;;;;5049427;28;20124;-57
2021/11/13 05:06:54;;;;;;;49.60;18.25;;;;;;;;;;5046590;28;20117;-57
2021/11/13 05:09:20;;;;;;;47.97;18.55;;;;;;;;;;5041901;28;20369;-57
2021/11/13 05:11:46;;;;;;;50.25;19.30;;;;;;;;;;5051440;28;20029;-57
2021/11/13 05:14:12;;;;;;;44.88;18.30;;;;;;;;;;5043882;28;20065;-58
2021/11/13 05:16:38;;;;;;;44.75;17.67;;;;;;;;;;5041496;28;20733;-57
2021/11/13 05:19:04;;;;;;;47.45;19.70;;;;;;;;;;5043055;28;20021;-57
2021/11/13 05:21:30;;;;;;;45.22;17.55;;;;;;;;;;5048323;28;20785;-56
2021/11/13 05:23:56;;;;;;;47.65;17.20;;;;;;;;;;5046318;28;20060;-55
2021/11/13 05:26:22;;;;;;;42.05;17.75;;;;;;;;;;5044741;28;20105;-55
2021/11/13 05:28:48;;;;;;;44.08;18.65;;;;;;;;;;5048756;28;20096;-55
2021/11/13 05:31:14;;;;;;;39.72;16.73;;;;;;;;;;5051575;28;20025;-53
2021/11/13 05:33:40;;;;;;;43.08;17.25;;;;;;;;;;5046182;28;20059;-57
2021/11/13 05:36:07;;;;;;;48.90;18.33;;;;;;;;;;5049417;28;20078;-56
2021/11/13 05:38:32;;;;;;;44.38;17.55;;;;;;;;;;5046911;28;20116;-57
2021/11/13 05:40:59;;;;;;;48.67;16.67;;;;;;;;;;5043096;28;20021;-55
2021/11/13 05:43:24;;;;;;;40.83;17.20;;;;;;;;;;5046743;28;20055;-56
2021/11/13 05:45:51;;;;;;;39.70;15.95;;;;;;;;;;5045793;28;20101;-55
2021/11/13 05:48:16;;;;;;;48.40;16.85;;;;;;;;;;5045714;28;20431;-55
2021/11/13 05:50:43;;;;;;;42.38;17.83;;;;;;;;;;5048662;28;20133;-53
2021/11/13 05:53:10;;;;;;;41.35;15.95;;;;;;;;;;5045914;28;20026;-56
2021/11/13 05:55:36;;;;;;;44.28;17.30;;;;;;;;;;5048793;28;20033;-57
2021/11/13 05:58:02;;;;;;;43.80;17.05;;;;;;;;;;5051282;28;20107;-57
2021/11/13 06:00:28;;;;;;;40.75;16.52;;;;;;;;;;5056463;28;20146;-56
2021/11/13 06:02:54;;;;;;;42.05;16.48;;;;;;;;;;5052069;28;20118;-55
2021/11/13 06:05:21;;;;;;;45.88;17.40;;;;;;;;;;5055172;28;20033;-58
2021/11/13 06:07:47;;;;;;;40.15;15.50;;;;;;;;;;5054839;28;20491;-57
2021/11/13 06:10:14;;;;;;;44.42;15.95;;;;;;;;;;5062648;28;20028;-57
2021/11/13 06:12:40;;;;;;;41.47;17.02;;;;;;;;;;5047609;28;20500;-55
2021/11/13 06:15:07;;;;;;;43.60;16.98;;;;;;;;;;5053571;28;20064;-56
2021/11/13 06:17:33;;;;;;;44.30;16.70;;;;;;;;;;5049362;28;20021;-54
2021/11/13 06:19:59;;;;;;;42.55;17.23;;;;;;;;;;5041776;28;20028;-57
2021/11/13 06:22:25;;;;;;;42.72;16.15;;;;;;;;;;5050794;28;20017;-57
2021/11/13 06:24:51;;;;;;;43.72;17.13;;;;;;;;;;5053736;28;20461;-56
2021/11/13 06:27:18;;;;;;;41.00;17.13;;;;;;;;;;5050024;28;20037;-54
2021/11/13 06:29:44;;;;;;;38.95;16.10;;;;;;;;;;5047594;28;20120;-56
2021/11/13 06:32:10;;;;;;;39.33;15.95;;;;;;;;;;5050897;28;20106;-57
2021/11/13 06:34:37;;;;;;;39.58;16.33;;;;;;;;;;5050924;28;20124;-56
2021/11/13 06:37:04;;;;;;;41.63;16.33;;;;;;;;;;5051633;28;20033;-56
2021/11/13 06:39:30;;;;;;;36.22;14.98;;;;;;;;;;5048514;28;20064;-57
2021/11/13 06:41:55;;;;;;;45.42;17.27;;;;;;;;;;5048176;28;20056;-55
2021/11/13 06:44:22;;;;;;;40.35;15.80;;;;;;;;;;5045474;28;20115;-57
2021/11/13 06:46:48;;;;;;;42.67;16.00;;;;;;;;;;5054100;28;20074;-55
2021/11/13 06:49:14;;;;;;;40.83;16.35;;;;;;;;;;5040408;28;20170;-56
2021/11/13 06:51:41;;;;;;;43.67;17.40;;;;;;;;;;5053514;28;20044;-56
2021/11/13 06:54:07;;;;;;;40.95;16.08;;;;;;;;;;5050147;28;20446;-56
2021/11/13 06:56:33;;;;;;;40.35;16.23;;;;;;;;;;5048843;28;20025;-53
2021/11/13 06:58:59;;;;;;;40.72;16.10;;;;;;;;;;5048933;28;20112;-54
2021/11/13 07:01:25;;;;;;;40.45;17.00;;;;;;;;;;5050224;28;20061;-55
2021/11/13 07:03:51;;;;;;;43.50;17.38;;;;;;;;;;5045950;28;20033;-57
2021/11/13 07:06:17;;;;;;;53.28;27.42;;;;;;;;;;5042520;28;20037;-57
2021/11/13 07:08:43;;;;;;;37.17;16.13;;;;;;;;;;5038579;28;20742;-57
2021/11/13 07:11:09;;;;;;;37.53;16.33;;;;;;;;;;5051167;28;20043;-56
2021/11/13 07:13:35;;;;;;;43.42;18.48;;;;;;;;;;5048772;28;20037;-57
2021/11/13 07:16:01;;;;;;;40.45;14.77;;;;;;;;;;5043355;28;20510;-57
2021/11/13 07:18:27;;;;;;;35.13;15.68;;;;;;;;;;5045754;28;20120;-54
2021/11/13 07:21:01;;;;;;;37.90;15.88;;;;;;;;;;5047647;28;20030;-57
2021/11/13 07:23:29;;;;;;;67.03;24.42;;;;;;;;;;5050174;28;20046;-56
2021/11/13 07:25:55;;;;;;;36.42;14.73;;;;;;;;;;5048627;28;20032;-58
2021/11/13 07:28:34;;;;;;;83.75;28.15;;;;;;;;;;5049924;28;20023;-55
2021/11/13 07:31:00;;;;;;;37.92;15.40;;;;;;;;;;5051842;28;20029;-57
2021/11/13 07:33:26;;;;;;;35.63;14.60;;;;;;;;;;5052842;28;20546;-56
2021/11/13 07:35:52;;;;;;;39.53;16.15;;;;;;;;;;5044976;28;20059;-57
2021/11/13 07:38:18;;;;;;;42.97;15.48;;;;;;;;;;5046238;28;20024;-56
2021/11/13 07:40:44;;;;;;;42.55;16.17;;;;;;;;;;5052990;28;20025;-57
2021/11/13 07:43:10;;;;;;;34.03;13.82;;;;;;;;;;5053707;28;20021;-56
2021/11/13 07:45:37;;;;;;;33.88;13.25;;;;;;;;;;5046308;28;20017;-56
2021/11/13 07:48:05;;;;;;;35.30;14.63;;;;;;;;;;5050039;28;20107;-57
2021/11/13 07:50:31;;;;;;;37.80;16.20;;;;;;;;;;5046206;28;20039;-54
2021/11/13 07:52:57;;;;;;;35.60;14.52;;;;;;;;;;5044574;28;20135;-57
2021/11/13 07:55:23;;;;;;;31.63;13.75;;;;;;;;;;5039314;28;20508;-53
2021/11/13 07:57:49;;;;;;;29.25;13.27;;;;;;;;;;5033751;28;20040;-57
2021/11/13 08:00:18;;;;;;;29.65;12.98;;;;;;;;;;5039659;28;20029;-55
2021/11/13 08:02:44;;;;;;;31.92;12.18;;;;;;;;;;5045931;28;20040;-56
2021/11/13 08:05:10;;;;;;;54.72;19.20;;;;;;;;;;5049499;28;20029;-57
2021/11/13 08:07:37;;;;;;;32.13;12.50;;;;;;;;;;5050628;28;20028;-56
2021/11/13 08:10:03;;;;;;;31.80;13.80;;;;;;;;;;5050051;28;20021;-56
2021/11/13 08:12:29;;;;;;;32.22;13.30;;;;;;;;;;5051716;28;20037;-57
2021/11/13 08:14:55;;;;;;;25.80;11.27;;;;;;;;;;5047851;28;20128;-58
2021/11/13 08:17:21;;;;;;;27.27;12.63;;;;;;;;;;5051175;28;20369;-57
2021/11/13 08:19:47;;;;;;;29.60;12.90;;;;;;;;;;5040494;28;20131;-58
2021/11/13 08:22:13;;;;;;;28.60;12.73;;;;;;;;;;5048393;28;20575;-57
2021/11/13 08:24:39;;;;;;;27.38;11.60;;;;;;;;;;5046074;28;20563;-57
2021/11/13 08:27:06;;;;;;;26.83;12.10;;;;;;;;;;5046946;28;20057;-57
2021/11/13 08:29:32;;;;;;;30.48;12.60;;;;;;;;;;5046466;28;20029;-57
2021/11/13 08:31:58;;;;;;;28.85;13.02;;;;;;;;;;5040675;28;20494;-56
2021/11/13 08:34:24;;;;;;;26.80;12.52;;;;;;;;;;5049844;28;20036;-54
2021/11/13 08:36:51;;;;;;;26.38;11.38;;;;;;;;;;5044769;28;20048;-56
2021/11/13 08:39:17;;;;;;;26.38;11.90;;;;;;;;;;5043568;28;20060;-57
2021/11/13 08:41:43;;;;;;;23.85;10.77;;;;;;;;;;5049816;28;20024;-56
2021/11/13 08:44:09;;;;;;;27.00;11.50;;;;;;;;;;5050059;28;20033;-53
2021/11/13 08:46:35;;;;;;;31.23;11.27;;;;;;;;;;5042363;28;20472;-54
2021/11/13 08:49:03;;;;;;;32.25;10.60;;;;;;;;;;5045293;28;20183;-57
2021/11/13 08:51:29;;;;;;;25.75;11.35;;;;;;;;;;5048615;28;20388;-57
2021/11/13 08:53:56;;;;;;;26.23;11.32;;;;;;;;;;5047342;28;20029;-57
2021/11/13 08:56:22;;;;;;;25.77;11.30;;;;;;;;;;5043923;28;20689;-57
2021/11/13 08:58:49;;;;;;;24.05;11.15;;;;;;;;;;5047397;28;20025;-57
2021/11/13 09:01:15;;;;;;;28.23;12.18;;;;;;;;;;5040389;28;20144;-54
2021/11/13 09:03:42;;;;;;;24.13;10.60;;;;;;;;;;5041563;28;20466;-57
2021/11/13 09:06:10;;;;;;;23.23;10.60;;;;;;;;;;5045295;28;20083;-57
2021/11/13 09:08:37;;;;;;;24.90;10.68;;;;;;;;;;5045787;28;20043;-57
2021/11/13 09:11:04;;;;;;;26.33;11.38;;;;;;;;;;5043709;28;20029;-51
2021/11/13 09:13:30;;;;;;;20.30;9.52;;;;;;;;;;5051415;28;20119;-58
2021/11/13 09:15:57;;;;;;;20.17;9.55;;;;;;;;;;5044601;28;20112;-58
2021/11/13 09:18:23;;;;;;;21.42;10.45;;;;;;;;;;5049095;28;20481;-57
2021/11/13 09:20:49;;;;;;;23.25;10.63;;;;;;;;;;5047441;28;20079;-55
2021/11/13 09:23:15;;;;;;;30.75;11.38;;;;;;;;;;5047940;28;20033;-57
2021/11/13 09:25:42;;;;;;;23.90;10.38;;;;;;;;;;5036265;28;20033;-56
2021/11/13 09:28:08;;;;;;;23.13;9.65;;;;;;;;;;5050616;28;20477;-57
2021/11/13 09:30:36;;;;;;;21.10;8.95;;;;;;;;;;5049526;28;20037;-54
2021/11/13 09:33:03;;;;;;;17.45;8.57;;;;;;;;;;5053597;28;20041;-55
2021/11/13 09:35:30;;;;;;;21.98;9.93;;;;;;;;;;5042553;28;20033;-57
2021/11/13 09:37:56;;;;;;;23.15;9.40;;;;;;;;;;5048791;28;20376;-57
2021/11/13 09:40:24;;;;;;;17.38;8.77;;;;;;;;;;5051795;28;20413;-54
2021/11/13 09:42:52;;;;;;;17.75;8.35;;;;;;;;;;5051682;28;20368;-53
2021/11/13 09:45:19;;;;;;;18.55;8.35;;;;;;;;;;5049646;28;20031;-56
2021/11/13 09:47:47;;;;;;;19.17;9.30;;;;;;;;;;5052989;28;20035;-53
2021/11/13 09:50:13;;;;;;;20.88;9.20;;;;;;;;;;5043047;28;20030;-56
2021/11/13 09:52:40;;;;;;;21.52;9.70;;;;;;;;;;5053173;28;20029;-56
2021/11/13 09:55:07;;;;;;;20.48;8.68;;;;;;;;;;5039792;28;20458;-57
2021/11/13 09:57:34;;;;;;;19.90;8.48;;;;;;;;;;5052423;28;20028;-58
2021/11/13 10:00:00;;;;;;;18.88;8.55;;;;;;;;;;5051994;28;20463;-53
2021/11/13 10:02:26;;;;;;;21.73;8.85;;;;;;;;;;5046713;28;20075;-56
2021/11/13 10:04:52;;;;;;;18.27;8.52;;;;;;;;;;5048687;28;20037;-56
2021/11/13 10:07:18;;;;;;;17.27;8.68;;;;;;;;;;5053714;28;20057;-55
2021/11/13 10:09:48;;;;;;;17.63;8.23;;;;;;;;;;5037821;28;20069;-56
2021/11/13 10:12:14;;;;;;;17.80;7.75;;;;;;;;;;5050530;28;20035;-54
2021/11/13 10:14:42;;;;;;;18.05;8.45;;;;;;;;;;5048262;28;20037;-56
2021/11/13 10:17:24;;;;;;;15.88;7.25;;;;;;;;;;5047737;28;20021;-57
2021/11/13 10:19:51;;;;;;;13.07;7.38;;;;;;;;;;5038280;28;20139;-57
2021/11/13 10:22:17;;;;;;;14.90;7.45;;;;;;;;;;5051798;28;20036;-55
2021/11/13 10:24:45;;;;;;;22.08;8.23;;;;;;;;;;5044010;28;20029;-58
2021/11/13 10:27:11;;;;;;;17.80;8.32;;;;;;;;;;5047936;28;20029;-58
2021/11/13 10:29:38;;;;;;;15.90;8.07;;;;;;;;;;5051908;28;20547;-58
2021/11/13 10:32:30;;;;;;;17.95;8.77;;;;;;;;;;5049720;28;20575;-57
2021/11/13 10:34:56;;;;;;;16.60;7.28;;;;;;;;;;5048899;28;20517;-56
2021/11/13 10:37:24;;;;;;;16.08;8.07;;;;;;;;;;5050514;28;20100;-58
2021/11/13 10:39:50;;;;;;;17.17;8.30;;;;;;;;;;5053028;28;20044;-58
2021/11/13 10:42:18;;;;;;;18.17;8.75;;;;;;;;;;5052490;28;20025;-58
2021/11/13 10:44:51;;;;;;;17.35;8.00;;;;;;;;;;5053990;28;20033;-58
2021/11/13 10:47:19;;;;;;;16.00;7.80;;;;;;;;;;5046345;28;20017;-58
2021/11/13 10:49:46;;;;;;;18.17;7.97;;;;;;;;;;5051327;28;20567;-55
2021/11/13 10:52:13;;;;;;;20.30;9.10;;;;;;;;;;5047315;28;20112;-58
2021/11/13 10:54:41;;;;;;;15.65;7.60;;;;;;;;;;5048060;28;20028;-58
2021/11/13 10:57:09;;;;;;;17.88;7.97;;;;;;;;;;5051406;28;20052;-55
2021/11/13 10:59:36;;;;;;;14.27;6.88;;;;;;;;;;5052555;28;20112;-58
2021/11/13 11:02:04;;;;;;;14.15;7.50;;;;;;;;;;5048918;28;20025;-57
2021/11/13 11:04:32;;;;;;;15.93;6.90;;;;;;;;;;5047869;28;20151;-57
2021/11/13 11:07:16;;;;;;;21.75;7.78;;;;;;;;;;5044857;28;20032;-58
2021/11/13 11:09:43;;;;;;;12.23;6.47;;;;;;;;;;5049344;28;20025;-58
2021/11/13 11:12:21;;;;;;;15.18;6.93;;;;;;;;;;5051731;28;20028;-56
2021/11/13 11:14:49;;;;;;;14.75;7.00;;;;;;;;;;5046892;28;20036;-58
2021/11/13 11:17:16;;;;;;;16.45;6.75;;;;;;;;;;5050420;28;20033;-56
2021/11/13 11:19:46;;;;;;;15.07;6.85;;;;;;;;;;5046892;28;20025;-58
2021/11/13 11:22:15;;;;;;;13.15;6.75;;;;;;;;;;5046227;28;20060;-56
2021/11/13 11:24:43;;;;;;;13.85;6.95;;;;;;;;;;5047711;28;20036;-56
2021/11/13 11:27:11;;;;;;;13.88;7.45;;;;;;;;;;5044737;28;20108;-56
2021/11/13 11:29:43;;;;;;;11.90;6.30;;;;;;;;;;5047903;28;20037;-58
2021/11/13 11:32:11;;;;;;;11.35;6.38;;;;;;;;;;5049935;28;20400;-56
2021/11/13 11:34:39;;;;;;;14.98;7.25;;;;;;;;;;5052570;28;20095;-57
2021/11/13 11:37:09;;;;;;;15.82;7.05;;;;;;;;;;5051966;28;20434;-54
2021/11/13 11:39:35;;;;;;;12.00;6.13;;;;;;;;;;5052152;28;20021;-56
2021/11/13 11:42:02;;;;;;;14.32;6.90;;;;;;;;;;5048777;28;20029;-56
2021/11/13 11:44:28;;;;;;;17.67;8.05;;;;;;;;;;5052232;28;20029;-58
2021/11/13 11:46:55;;;;;;;15.15;7.20;;;;;;;;;;5049973;28;20453;-57
2021/11/13 11:49:21;;;;;;;13.85;6.88;;;;;;;;;;5046406;28;20052;-57
2021/11/13 11:51:48;;;;;;;16.15;7.78;;;;;;;;;;5049427;28;20396;-56
2021/11/13 11:54:14;;;;;;;14.63;9.02;;;;;;;;;;5051770;28;20670;-57
2021/11/13 11:56:40;;;;;;;14.00;7.38;;;;;;;;;;5051134;28;20029;-57
2021/11/13 11:59:07;;;;;;;16.52;9.20;;;;;;;;;;5046803;28;20422;-57
2021/11/13 12:01:41;;;;;;;13.77;8.38;;;;;;;;;;5049869;28;20021;-58
2021/11/13 12:04:17;;;;;;;14.35;7.50;;;;;;;;;;5052447;28;20112;-56
2021/11/13 12:06:48;;;;;;;13.15;6.68;;;;;;;;;;5050656;28;20556;-53
2021/11/13 12:09:14;;;;;;;13.55;7.15;;;;;;;;;;5050949;28;20029;-56
2021/11/13 12:11:42;;;;;;;16.45;7.18;;;;;;;;;;5052068;28;20415;-57
2021/11/13 12:14:23;;;;;;;12.02;6.63;;;;;;;;;;5052284;28;20044;-56
2021/11/13 12:16:49;;;;;;;9.93;5.38;;;;;;;;;;5049693;28;20119;-56
2021/11/13 12:19:15;;;;;;;10.90;5.80;;;;;;;;;;5048648;28;20108;-56
2021/11/13 12:21:51;;;;;;;8.35;4.68;;;;;;;;;;5047809;28;20373;-56
2021/11/13 12:24:17;;;;;;;12.38;5.97;;;;;;;;;;5048486;28;20078;-56
2021/11/13 12:26:57;;;;;;;9.07;5.13;;;;;;;;;;5042523;28;20035;-56
2021/11/13 12:29:23;;;;;;;8.63;4.93;;;;;;;;;;5043351;28;20029;-58
2021/11/13 12:31:50;;;;;;;8.63;4.40;;;;;;;;;;5051016;28;20086;-57
2021/11/13 12:34:19;;;;;;;9.32;4.93;;;;;;;;;;5042628;28;20036;-58
2021/11/13 12:36:58;;;;;;;9.07;4.47;;;;;;;;;;5049840;28;20054;-56
2021/11/13 12:39:25;;;;;;;9.35;4.78;;;;;;;;;;5049811;28;20037;-56
2021/11/13 12:42:03;;;;;;;10.80;5.55;;;;;;;;;;5049434;28;20028;-56
2021/11/13 12:44:31;;;;;;;10.25;5.18;;;;;;;;;;5048659;28;20029;-54
2021/11/13 12:47:00;;;;;;;7.53;4.80;;;;;;;;;;5047682;28;20033;-56
2021/11/13 12:49:28;;;;;;;10.95;5.40;;;;;;;;;;5046365;28;20080;-58
2021/11/13 12:51:54;;;;;;;11.48;5.60;;;;;;;;;;5047369;28;20030;-58
2021/11/13 12:54:38;;;;;;;9.48;5.40;;;;;;;;;;5044893;28;20044;-57
2021/11/13 12:57:07;;;;;;;12.90;5.53;;;;;;;;;;5046846;28;20025;-58
2021/11/13 12:59:35;;;;;;;8.80;4.85;;;;;;;;;;5045531;28;20021;-57
2021/11/13 13:02:06;;;;;;;9.52;4.90;;;;;;;;;;5052591;28;20124;-57
2021/11/13 13:04:34;;;;;;;10.27;5.38;;;;;;;;;;5055287;28;20033;-56
2021/11/13 13:07:01;;;;;;;12.95;6.78;;;;;;;;;;5051367;28;20033;-56
2021/11/13 13:09:29;;;;;;;11.55;6.38;;;;;;;;;;5053833;28;20029;-58
2021/11/13 13:11:56;;;;;;;13.25;5.70;;;;;;;;;;5052698;28;20120;-58
2021/11/13 13:14:29;;;;;;;10.45;5.38;;;;;;;;;;5054724;28;20036;-57
2021/11/13 13:16:55;;;;;;;10.80;5.63;;;;;;;;;;5055208;28;20036;-56
2021/11/13 13:19:26;;;;;;;10.65;5.70;;;;;;;;;;5051759;28;20079;-53
2021/11/13 13:21:53;;;;;;;9.88;5.70;;;;;;;;;;5046680;28;20466;-56
2021/11/13 13:24:21;;;;;;;13.15;6.15;;;;;;;;;;5054830;28;20477;-56
2021/11/13 13:26:48;;;;;;;9.60;5.20;;;;;;;;;;5048237;28;20033;-57
2021/11/13 13:29:18;;;;;;;11.60;5.50;;;;;;;;;;5045941;28;20108;-55
2021/11/13 13:31:59;;;;;;;9.93;5.72;;;;;;;;;;5049136;28;20112;-56
2021/11/13 13:34:27;;;;;;;11.18;5.93;;;;;;;;;;5045392;28;20046;-54
2021/11/13 13:36:57;;;;;;;9.35;5.47;;;;;;;;;;5056803;28;20020;-58
2021/11/13 13:39:24;;;;;;;9.65;5.38;;;;;;;;;;5055232;28;20346;-57
2021/11/13 13:41:50;;;;;;;10.95;5.78;;;;;;;;;;5057672;28;20767;-54
2021/11/13 13:44:18;;;;;;;9.20;5.43;;;;;;;;;;5049188;28;20061;-57
2021/11/13 13:46:44;;;;;;;10.68;6.05;;;;;;;;;;5046861;28;20031;-55
2021/11/13 13:49:14;;;;;;;13.18;5.90;;;;;;;;;;5054259;28;20029;-53
2021/11/13 13:51:45;;;;;;;10.45;5.65;;;;;;;;;;5053451;28;20044;-55
2021/11/13 13:54:14;;;;;;;10.77;5.35;;;;;;;;;;5050087;28;20033;-54
2021/11/13 13:56:44;;;;;;;10.70;5.40;;;;;;;;;;5046672;28;20088;-56
2021/11/13 13:59:21;;;;;;;9.82;5.43;;;;;;;;;;5046834;28;20056;-55
2021/11/13 14:01:52;;;;;;;9.57;5.60;;;;;;;;;;5043020;28;20676;-55
2021/11/13 14:04:18;;;;;;;10.93;5.60;;;;;;;;;;5051100;28;20041;-54
2021/11/13 14:06:44;;;;;;;10.93;5.45;;;;;;;;;;5052422;28;20476;-56
2021/11/13 14:09:11;;;;;;;9.13;5.00;;;;;;;;;;5051877;28;20029;-53
2021/11/13 14:11:37;;;;;;;9.98;5.50;;;;;;;;;;5049705;28;20071;-51
2021/11/13 14:14:03;;;;;;;10.50;5.70;;;;;;;;;;5049189;28;20534;-55
2021/11/13 14:16:37;;;;;;;10.65;5.72;;;;;;;;;;5051412;28;20115;-57
2021/11/13 14:19:10;;;;;;;13.60;5.65;;;;;;;;;;5048122;28;20032;-56
2021/11/13 14:21:36;;;;;;;11.95;4.97;;;;;;;;;;5040066;28;20029;-53